sensor_id;sensor_type;location;lat;lon;timestamp;pressure;altitude;pressure_sealevel;temperature;humidity
9277;BME280;4676;42.678;23.244;2023-03-01T00:02:21;94507.53;;;5.20;nan
9277;BME280;4676;42.678;23.244;2023-03-01T00:04:48;94523.31;;;5.28;nan
9277;BME280;4676;42.678;23.244;2023-03-01T00:07:14;94523.31;;;5.30;nan
9277;BME280;4676;42.678;23.244;2023-03-01T00:09:41;94510.72;;;5.30;nan
9277;BME280;4676;42.678;23.244;2023-03-01T00:12:12;94510.75;;;5.28;nan
9277;BME280;4676;42.678;23.244;2023-03-01T00:14:39;94499.84;;;5.28;nan
9277;BME280;4676;42.678;23.244;2023-03-01T00:17:05;94501.53;;;5.29;nan
9277;BME280;4676;42.678;23.244;2023-03-01T00:19:32;94495.63;;;5.31;nan
9277;BME280;4676;42.678;23.244;2023-03-01T00:21:59;94503.16;;;5.33;nan
9277;BME280;4676;42.678;23.244;2023-03-01T00:24:26;94498.06;;;5.36;nan
9277;BME280;4676;42.678;23.244;2023-03-01T00:26:53;94488.88;;;5.36;nan
9277;BME280;4676;42.678;23.244;2023-03-01T00:29:23;94495.59;;;5.34;nan
9277;BME280;4676;42.678;23.244;2023-03-01T00:31:50;94490.50;;;5.39;nan
9277;BME280;4676;42.678;23.244;2023-03-01T00:34:16;94487.09;;;5.44;nan
9277;BME280;4676;42.678;23.244;2023-03-01T00:36:44;94483.84;;;5.35;nan
9277;BME280;4676;42.678;23.244;2023-03-01T00:39:13;94463.00;;;5.28;nan
9277;BME280;4676;42.678;23.244;2023-03-01T00:41:40;94476.41;;;5.29;nan
9277;BME280;4676;42.678;23.244;2023-03-01T00:44:07;94477.97;;;5.37;nan
9277;BME280;4676;42.678;23.244;2023-03-01T00:46:35;94477.91;;;5.40;nan
9277;BME280;4676;42.678;23.244;2023-03-01T00:49:02;94477.97;;;5.36;nan
9277;BME280;4676;42.678;23.244;2023-03-01T00:51:30;94455.59;;;5.19;nan
9277;BME280;4676;42.678;23.244;2023-03-01T00:53:58;94476.41;;;5.29;nan
9277;BME280;4676;42.678;23.244;2023-03-01T00:56:26;94474.88;;;5.19;nan
9277;BME280;4676;42.678;23.244;2023-03-01T00:58:53;94480.69;;;5.22;nan
9277;BME280;4676;42.678;23.244;2023-03-01T01:01:22;94481.38;;;5.32;nan
9277;BME280;4676;42.678;23.244;2023-03-01T01:03:52;94488.13;;;5.28;nan
9277;BME280;4676;42.678;23.244;2023-03-01T01:06:20;94488.06;;;5.33;nan
9277;BME280;4676;42.678;23.244;2023-03-01T01:08:48;94473.03;;;5.30;nan
9277;BME280;4676;42.678;23.244;2023-03-01T01:11:16;94485.41;;;5.42;nan
9277;BME280;4676;42.678;23.244;2023-03-01T01:13:44;94484.56;;;5.44;nan
9277;BME280;4676;42.678;23.244;2023-03-01T01:16:11;94478.84;;;5.33;nan
9277;BME280;4676;42.678;23.244;2023-03-01T01:18:38;94454.66;;;5.26;nan
9277;BME280;4676;42.678;23.244;2023-03-01T01:21:09;94479.66;;;5.37;nan
9277;BME280;4676;42.678;23.244;2023-03-01T01:23:37;94481.41;;;5.30;nan
9277;BME280;4676;42.678;23.244;2023-03-01T01:26:05;94475.59;;;5.27;nan
9277;BME280;4676;42.678;23.244;2023-03-01T01:28:32;94474.78;;;5.26;nan
9277;BME280;4676;42.678;23.244;2023-03-01T01:30:59;94478.91;;;5.29;nan
9277;BME280;4676;42.678;23.244;2023-03-01T01:33:26;94479.75;;;5.28;nan
9277;BME280;4676;42.678;23.244;2023-03-01T01:35:53;94478.91;;;5.29;nan
9277;BME280;4676;42.678;23.244;2023-03-01T01:38:22;94488.91;;;5.33;nan
9277;BME280;4676;42.678;23.244;2023-03-01T01:40:50;94499.72;;;5.38;nan
9277;BME280;4676;42.678;23.244;2023-03-01T01:43:20;94489.66;;;5.40;nan
9277;BME280;4676;42.678;23.244;2023-03-01T01:45:47;94500.50;;;5.42;nan
9277;BME280;4676;42.678;23.244;2023-03-01T01:48:17;94486.31;;;5.39;nan
9277;BME280;4676;42.678;23.244;2023-03-01T01:50:45;94490.44;;;5.45;nan
9277;BME280;4676;42.678;23.244;2023-03-01T01:53:16;94491.22;;;5.45;nan
9277;BME280;4676;42.678;23.244;2023-03-01T01:55:50;94479.66;;;5.35;nan
9277;BME280;4676;42.678;23.244;2023-03-01T01:58:19;94487.19;;;5.35;nan
9277;BME280;4676;42.678;23.244;2023-03-01T02:00:48;94483.09;;;5.28;nan
9277;BME280;4676;42.678;23.244;2023-03-01T02:03:18;94474.72;;;5.31;nan
9277;BME280;4676;42.678;23.244;2023-03-01T02:05:49;94453.03;;;5.24;nan
9277;BME280;4676;42.678;23.244;2023-03-01T02:08:19;94467.22;;;5.26;nan
9277;BME280;4676;42.678;23.244;2023-03-01T02:10:48;94461.38;;;5.26;nan
9277;BME280;4676;42.678;23.244;2023-03-01T02:13:15;94453.94;;;5.20;nan
9277;BME280;4676;42.678;23.244;2023-03-01T02:15:42;94455.56;;;5.22;nan
9277;BME280;4676;42.678;23.244;2023-03-01T02:18:12;94449.63;;;5.26;nan
9277;BME280;4676;42.678;23.244;2023-03-01T02:20:47;94448.84;;;5.23;nan
9277;BME280;4676;42.678;23.244;2023-03-01T02:23:17;94456.34;;;5.24;nan
9277;BME280;4676;42.678;23.244;2023-03-01T02:25:48;94459.78;;;5.20;nan
9277;BME280;4676;42.678;23.244;2023-03-01T02:28:26;94460.63;;;5.19;nan
9277;BME280;4676;42.678;23.244;2023-03-01T02:30:53;94466.50;;;5.18;nan
9277;BME280;4676;42.678;23.244;2023-03-01T02:33:44;94451.56;;;5.09;nan
9277;BME280;4676;42.678;23.244;2023-03-01T02:36:17;94468.13;;;5.24;nan
9277;BME280;4676;42.678;23.244;2023-03-01T02:38:45;94460.59;;;5.22;nan
9277;BME280;4676;42.678;23.244;2023-03-01T02:41:15;94465.47;;;5.31;nan
9277;BME280;4676;42.678;23.244;2023-03-01T02:43:45;94467.13;;;5.32;nan
9277;BME280;4676;42.678;23.244;2023-03-01T02:46:15;94463.78;;;5.33;nan
9277;BME280;4676;42.678;23.244;2023-03-01T02:48:44;94461.13;;;5.44;nan
9277;BME280;4676;42.678;23.244;2023-03-01T02:51:34;94455.19;;;5.48;nan
9277;BME280;4676;42.678;23.244;2023-03-01T02:54:13;94454.31;;;5.52;nan
9277;BME280;4676;42.678;23.244;2023-03-01T02:56:42;94456.81;;;5.50;nan
9277;BME280;4676;42.678;23.244;2023-03-01T02:59:16;94459.59;;;5.34;nan
9277;BME280;4676;42.678;23.244;2023-03-01T03:01:44;94462.25;;;5.23;nan
9277;BME280;4676;42.678;23.244;2023-03-01T03:04:15;94460.63;;;5.18;nan
9277;BME280;4676;42.678;23.244;2023-03-01T03:06:43;94458.97;;;5.18;nan
9277;BME280;4676;42.678;23.244;2023-03-01T03:09:11;94451.47;;;5.15;nan
9277;BME280;4676;42.678;23.244;2023-03-01T03:11:37;94459.91;;;5.11;nan
9277;BME280;4676;42.678;23.244;2023-03-01T03:14:06;94459.09;;;5.09;nan
9277;BME280;4676;42.678;23.244;2023-03-01T03:16:40;94466.59;;;5.11;nan
9277;BME280;4676;42.678;23.244;2023-03-01T03:19:07;94470.91;;;5.01;nan
9277;BME280;4676;42.678;23.244;2023-03-01T03:21:34;94465.88;;;5.02;nan
9277;BME280;4676;42.678;23.244;2023-03-01T03:24:01;94465.88;;;5.02;nan
9277;BME280;4676;42.678;23.244;2023-03-01T03:26:28;94456.59;;;5.09;nan
9277;BME280;4676;42.678;23.244;2023-03-01T03:28:55;94462.50;;;5.05;nan
9277;BME280;4676;42.678;23.244;2023-03-01T03:31:22;94468.41;;;5.01;nan
9277;BME280;4676;42.678;23.244;2023-03-01T03:33:50;94472.63;;;4.97;nan
9277;BME280;4676;42.678;23.244;2023-03-01T03:36:18;94459.34;;;4.89;nan
9277;BME280;4676;42.678;23.244;2023-03-01T03:38:46;94470.25;;;4.87;nan
9277;BME280;4676;42.678;23.244;2023-03-01T03:41:15;94468.59;;;4.87;nan
9277;BME280;4676;42.678;23.244;2023-03-01T03:43:42;94470.28;;;4.85;nan
9277;BME280;4676;42.678;23.244;2023-03-01T03:46:10;94468.72;;;4.75;nan
9277;BME280;4676;42.678;23.244;2023-03-01T03:48:38;94468.72;;;4.75;nan
9277;BME280;4676;42.678;23.244;2023-03-01T03:51:09;94466.19;;;4.78;nan
9277;BME280;4676;42.678;23.244;2023-03-01T03:53:36;94452.06;;;4.70;nan
9277;BME280;4676;42.678;23.244;2023-03-01T03:56:02;94465.41;;;4.72;nan
9277;BME280;4676;42.678;23.244;2023-03-01T03:58:29;94466.31;;;4.68;nan
9277;BME280;4676;42.678;23.244;2023-03-01T04:00:57;94459.59;;;4.71;nan
9277;BME280;4676;42.678;23.244;2023-03-01T04:03:25;94435.53;;;4.53;nan
9277;BME280;4676;42.678;23.244;2023-03-01T04:05:52;94450.50;;;4.60;nan
9277;BME280;4676;42.678;23.244;2023-03-01T04:08:22;94466.34;;;4.65;nan
9277;BME280;4676;42.678;23.244;2023-03-01T04:10:50;94470.63;;;4.57;nan
9277;BME280;4676;42.678;23.244;2023-03-01T04:13:19;94469.75;;;4.59;nan
9277;BME280;4676;42.678;23.244;2023-03-01T04:15:46;94466.44;;;4.57;nan
9277;BME280;4676;42.678;23.244;2023-03-01T04:18:16;94474.84;;;4.53;nan
9277;BME280;4676;42.678;23.244;2023-03-01T04:20:43;94475.69;;;4.52;nan
9277;BME280;4676;42.678;23.244;2023-03-01T04:23:13;94463.22;;;4.44;nan
9277;BME280;4676;42.678;23.244;2023-03-01T04:25:46;94473.22;;;4.47;nan
9277;BME280;4676;42.678;23.244;2023-03-01T04:28:19;94472.38;;;4.47;nan
9277;BME280;4676;42.678;23.244;2023-03-01T04:30:45;94470.75;;;4.46;nan
9277;BME280;4676;42.678;23.244;2023-03-01T04:33:12;94465.72;;;4.46;nan
9277;BME280;4676;42.678;23.244;2023-03-01T04:35:39;94467.44;;;4.41;nan
9277;BME280;4676;42.678;23.244;2023-03-01T04:38:06;94433.34;;;4.23;nan
9277;BME280;4676;42.678;23.244;2023-03-01T04:40:33;94424.16;;;4.24;nan
9277;BME280;4676;42.678;23.244;2023-03-01T04:43:02;94455.66;;;4.49;nan
9277;BME280;4676;42.678;23.244;2023-03-01T04:45:31;94464.09;;;4.40;nan
9277;BME280;4676;42.678;23.244;2023-03-01T04:48:00;94464.09;;;4.40;nan
9277;BME280;4676;42.678;23.244;2023-03-01T04:50:27;94456.59;;;4.39;nan
9277;BME280;4676;42.678;23.244;2023-03-01T04:52:54;94445.84;;;4.28;nan
9277;BME280;4676;42.678;23.244;2023-03-01T04:55:24;94451.56;;;4.40;nan
9277;BME280;4676;42.678;23.244;2023-03-01T04:57:51;94449.91;;;4.39;nan
9277;BME280;4676;42.678;23.244;2023-03-01T05:00:20;94445.69;;;4.40;nan
9277;BME280;4676;42.678;23.244;2023-03-01T05:02:49;94455.72;;;4.43;nan
9277;BME280;4676;42.678;23.244;2023-03-01T05:05:19;94457.38;;;4.44;nan
9277;BME280;4676;42.678;23.244;2023-03-01T05:07:47;94456.56;;;4.42;nan
9277;BME280;4676;42.678;23.244;2023-03-01T05:10:13;94459.84;;;4.50;nan
9277;BME280;4676;42.678;23.244;2023-03-01T05:12:40;94463.91;;;4.60;nan
9277;BME280;4676;42.678;23.244;2023-03-01T05:15:07;94469.00;;;4.51;nan
9277;BME280;4676;42.678;23.244;2023-03-01T05:17:35;94459.88;;;4.45;nan
9277;BME280;4676;42.678;23.244;2023-03-01T05:20:03;94471.59;;;4.43;nan
9277;BME280;4676;42.678;23.244;2023-03-01T05:22:33;94467.41;;;4.44;nan
9277;BME280;4676;42.678;23.244;2023-03-01T05:25:00;94472.41;;;4.44;nan
9277;BME280;4676;42.678;23.244;2023-03-01T05:27:27;94475.75;;;4.46;nan
9277;BME280;4676;42.678;23.244;2023-03-01T05:29:54;94460.63;;;4.52;nan
9277;BME280;4676;42.678;23.244;2023-03-01T05:32:21;94465.63;;;4.55;nan
9277;BME280;4676;42.678;23.244;2023-03-01T05:34:49;94458.91;;;4.56;nan
9277;BME280;4676;42.678;23.244;2023-03-01T05:37:17;94470.56;;;4.61;nan
9277;BME280;4676;42.678;23.244;2023-03-01T05:39:44;94469.84;;;4.51;nan
9277;BME280;4676;42.678;23.244;2023-03-01T05:42:11;94474.88;;;4.50;nan
9277;BME280;4676;42.678;23.244;2023-03-01T05:44:38;94463.97;;;4.52;nan
9277;BME280;4676;42.678;23.244;2023-03-01T05:47:05;94460.63;;;4.53;nan
9277;BME280;4676;42.678;23.244;2023-03-01T05:49:32;94472.25;;;4.59;nan
9277;BME280;4676;42.678;23.244;2023-03-01T05:52:01;94477.25;;;4.62;nan
9277;BME280;4676;42.678;23.244;2023-03-01T05:54:28;94480.59;;;4.63;nan
9277;BME280;4676;42.678;23.244;2023-03-01T05:56:54;94484.78;;;4.64;nan
9277;BME280;4676;42.678;23.244;2023-03-01T05:59:21;94484.72;;;4.67;nan
9277;BME280;4676;42.678;23.244;2023-03-01T06:01:48;94497.13;;;4.79;nan
9277;BME280;4676;42.678;23.244;2023-03-01T06:04:15;94496.38;;;4.72;nan
9277;BME280;4676;42.678;23.244;2023-03-01T06:06:42;94492.97;;;4.76;nan
9277;BME280;4676;42.678;23.244;2023-03-01T06:09:10;94503.91;;;4.74;nan
9277;BME280;4676;42.678;23.244;2023-03-01T06:11:36;94503.78;;;4.83;nan
9277;BME280;4676;42.678;23.244;2023-03-01T06:14:03;94505.44;;;4.84;nan
9277;BME280;4676;42.678;23.244;2023-03-01T06:16:31;94511.34;;;4.80;nan
9277;BME280;4676;42.678;23.244;2023-03-01T06:18:58;94512.94;;;4.87;nan
9277;BME280;4676;42.678;23.244;2023-03-01T06:21:25;94516.16;;;4.98;nan
9277;BME280;4676;42.678;23.244;2023-03-01T06:23:51;94512.09;;;4.86;nan
9277;BME280;4676;42.678;23.244;2023-03-01T06:26:19;94518.88;;;4.81;nan
9277;BME280;4676;42.678;23.244;2023-03-01T06:28:46;94520.59;;;4.78;nan
9277;BME280;4676;42.678;23.244;2023-03-01T06:31:13;94508.91;;;4.72;nan
9277;BME280;4676;42.678;23.244;2023-03-01T06:33:39;94521.44;;;4.78;nan
9277;BME280;4676;42.678;23.244;2023-03-01T06:36:07;94506.34;;;4.80;nan
9277;BME280;4676;42.678;23.244;2023-03-01T06:38:35;94518.78;;;4.89;nan
9277;BME280;4676;42.678;23.244;2023-03-01T06:41:02;94523.00;;;4.87;nan
9277;BME280;4676;42.678;23.244;2023-03-01T06:43:30;94514.66;;;4.83;nan
9277;BME280;4676;42.678;23.244;2023-03-01T06:45:57;94504.72;;;4.74;nan
9277;BME280;4676;42.678;23.244;2023-03-01T06:48:24;94520.53;;;4.82;nan
9277;BME280;4676;42.678;23.244;2023-03-01T06:50:50;94521.41;;;4.80;nan
9277;BME280;4676;42.678;23.244;2023-03-01T06:53:17;94518.00;;;4.82;nan
9277;BME280;4676;42.678;23.244;2023-03-01T06:55:44;94518.00;;;4.84;nan
9277;BME280;4676;42.678;23.244;2023-03-01T06:58:10;94514.69;;;4.82;nan
9277;BME280;4676;42.678;23.244;2023-03-01T07:00:38;94518.88;;;4.81;nan
9277;BME280;4676;42.678;23.244;2023-03-01T07:03:06;94510.59;;;4.75;nan
9277;BME280;4676;42.678;23.244;2023-03-01T07:05:33;94516.13;;;5.01;nan
9277;BME280;4676;42.678;23.244;2023-03-01T07:08:00;94522.06;;;4.95;nan
9277;BME280;4676;42.678;23.244;2023-03-01T07:10:27;94516.16;;;4.98;nan
9277;BME280;4676;42.678;23.244;2023-03-01T07:12:57;94491.22;;;4.83;nan
9277;BME280;4676;42.678;23.244;2023-03-01T07:15:25;94513.69;;;4.95;nan
9277;BME280;4676;42.678;23.244;2023-03-01T07:17:53;94519.47;;;5.01;nan
9277;BME280;4676;42.678;23.244;2023-03-01T07:20:20;94516.81;;;5.14;nan
9277;BME280;4676;42.678;23.244;2023-03-01T07:22:49;94503.38;;;5.15;nan
9277;BME280;4676;42.678;23.244;2023-03-01T07:25:16;94508.41;;;5.15;nan
9277;BME280;4676;42.678;23.244;2023-03-01T07:27:43;94503.38;;;5.16;nan
9277;BME280;4676;42.678;23.244;2023-03-01T07:30:10;94498.91;;;5.38;nan
9277;BME280;4676;42.678;23.244;2023-03-01T07:32:37;94499.84;;;5.31;nan
9277;BME280;4676;42.678;23.244;2023-03-01T07:35:06;94504.00;;;5.32;nan
9277;BME280;4676;42.678;23.244;2023-03-01T07:37:33;94505.84;;;5.18;nan
9277;BME280;4676;42.678;23.244;2023-03-01T07:40:00;94499.84;;;5.29;nan
9277;BME280;4676;42.678;23.244;2023-03-01T07:42:27;94511.44;;;5.41;nan
9277;BME280;4676;42.678;23.244;2023-03-01T07:44:53;94508.19;;;5.33;nan
9277;BME280;4676;42.678;23.244;2023-03-01T07:47:20;94499.53;;;5.52;nan
9277;BME280;4676;42.678;23.244;2023-03-01T07:49:47;94502.66;;;5.68;nan
9277;BME280;4676;42.678;23.244;2023-03-01T07:52:15;94490.75;;;5.77;nan
9277;BME280;4676;42.678;23.244;2023-03-01T07:54:43;94469.91;;;5.71;nan
9277;BME280;4676;42.678;23.244;2023-03-01T07:57:10;94482.31;;;5.83;nan
9277;BME280;4676;42.678;23.244;2023-03-01T07:59:37;94484.69;;;5.92;nan
9277;BME280;4676;42.678;23.244;2023-03-01T08:02:03;94489.00;;;5.84;nan
9277;BME280;4676;42.678;23.244;2023-03-01T08:04:30;94494.22;;;5.70;nan
9277;BME280;4676;42.678;23.244;2023-03-01T08:06:58;94491.66;;;5.75;nan
9277;BME280;4676;42.678;23.244;2023-03-01T08:09:26;94480.50;;;5.92;nan
9277;BME280;4676;42.678;23.244;2023-03-01T08:11:53;94486.25;;;6.00;nan
9277;BME280;4676;42.678;23.244;2023-03-01T08:14:20;94483.56;;;6.11;nan
9277;BME280;4676;42.678;23.244;2023-03-01T08:16:49;94473.50;;;6.11;nan
9277;BME280;4676;42.678;23.244;2023-03-01T08:19:15;94485.19;;;6.14;nan
9277;BME280;4676;42.678;23.244;2023-03-01T08:21:42;94485.34;;;6.03;nan
9277;BME280;4676;42.678;23.244;2023-03-01T08:24:09;94480.25;;;6.08;nan
9277;BME280;4676;42.678;23.244;2023-03-01T08:26:38;94487.03;;;6.04;nan
9277;BME280;4676;42.678;23.244;2023-03-01T08:29:04;94492.72;;;6.14;nan
9277;BME280;4676;42.678;23.244;2023-03-01T08:31:33;94488.53;;;6.13;nan
9277;BME280;4676;42.678;23.244;2023-03-01T08:34:03;94490.28;;;6.11;nan
9277;BME280;4676;42.678;23.244;2023-03-01T08:36:32;94485.91;;;6.20;nan
9277;BME280;4676;42.678;23.244;2023-03-01T08:38:59;94479.97;;;6.24;nan
9277;BME280;4676;42.678;23.244;2023-03-01T08:41:26;94486.41;;;6.39;nan
9277;BME280;4676;42.678;23.244;2023-03-01T08:43:55;94480.34;;;6.50;nan
9277;BME280;4676;42.678;23.244;2023-03-01T08:46:24;94491.41;;;6.42;nan
9277;BME280;4676;42.678;23.244;2023-03-01T08:48:51;94478.75;;;6.45;nan
9277;BME280;4676;42.678;23.244;2023-03-01T08:51:20;94486.94;;;6.56;nan
9277;BME280;4676;42.678;23.244;2023-03-01T08:53:47;94486.88;;;6.59;nan
9277;BME280;4676;42.678;23.244;2023-03-01T08:56:15;94496.69;;;6.73;nan
9277;BME280;4676;42.678;23.244;2023-03-01T08:58:44;94490.78;;;6.75;nan
9277;BME280;4676;42.678;23.244;2023-03-01T09:01:14;94491.44;;;6.83;nan
9277;BME280;4676;42.678;23.244;2023-03-01T09:03:42;94472.97;;;6.83;nan
9277;BME280;4676;42.678;23.244;2023-03-01T09:06:09;94492.00;;;6.97;nan
9277;BME280;4676;42.678;23.244;2023-03-01T09:08:37;94478.66;;;6.94;nan
9277;BME280;4676;42.678;23.244;2023-03-01T09:11:04;94442.94;;;6.75;nan
9277;BME280;4676;42.678;23.244;2023-03-01T09:13:32;94489.88;;;7.19;nan
9277;BME280;4676;42.678;23.244;2023-03-01T09:16:01;94454.81;;;7.10;nan
9277;BME280;4676;42.678;23.244;2023-03-01T09:18:30;94480.56;;;7.23;nan
9277;BME280;4676;42.678;23.244;2023-03-01T09:21:01;94482.09;;;7.30;nan
9277;BME280;4676;42.678;23.244;2023-03-01T09:23:28;94484.13;;;7.14;nan
9277;BME280;4676;42.678;23.244;2023-03-01T09:25:54;94483.22;;;7.17;nan
9277;BME280;4676;42.678;23.244;2023-03-01T09:28:21;94425.13;;;6.83;nan
9277;BME280;4676;42.678;23.244;2023-03-01T09:30:48;94472.91;;;6.87;nan
9277;BME280;4676;42.678;23.244;2023-03-01T09:33:15;94475.00;;;7.09;nan
9277;BME280;4676;42.678;23.244;2023-03-01T09:35:43;94479.03;;;7.16;nan
9277;BME280;4676;42.678;23.244;2023-03-01T09:38:12;94474.41;;;6.96;nan
9277;BME280;4676;42.678;23.244;2023-03-01T09:40:42;94467.28;;;6.75;nan
9277;BME280;4676;42.678;23.244;2023-03-01T09:43:18;94467.16;;;6.82;nan
9277;BME280;4676;42.678;23.244;2023-03-01T09:45:49;94465.13;;;6.98;nan
9277;BME280;4676;42.678;23.244;2023-03-01T09:48:21;94471.47;;;7.16;nan
9277;BME280;4676;42.678;23.244;2023-03-01T09:50:52;94474.06;;;7.13;nan
9277;BME280;4676;42.678;23.244;2023-03-01T09:53:20;94470.84;;;7.06;nan
9277;BME280;4676;42.678;23.244;2023-03-01T09:55:51;94462.66;;;6.96;nan
9277;BME280;4676;42.678;23.244;2023-03-01T09:58:33;94449.84;;;7.06;nan
9277;BME280;4676;42.678;23.244;2023-03-01T10:01:15;94439.47;;;7.21;nan
9277;BME280;4676;42.678;23.244;2023-03-01T10:04:00;94454.44;;;7.27;nan
9277;BME280;4676;42.678;23.244;2023-03-01T10:06:32;94453.28;;;7.03;nan
9277;BME280;4676;42.678;23.244;2023-03-01T10:09:02;94457.97;;;7.20;nan
9277;BME280;4676;42.678;23.244;2023-03-01T10:11:35;94455.34;;;7.24;nan
9277;BME280;4676;42.678;23.244;2023-03-01T10:14:05;94452.09;;;7.19;nan
9277;BME280;4676;42.678;23.244;2023-03-01T10:16:39;94434.94;;;6.96;nan
9277;BME280;4676;42.678;23.244;2023-03-01T10:19:11;94447.00;;;6.82;nan
9277;BME280;4676;42.678;23.244;2023-03-01T10:21:44;94448.47;;;6.91;nan
9277;BME280;4676;42.678;23.244;2023-03-01T10:24:15;94440.31;;;6.80;nan
9277;BME280;4676;42.678;23.244;2023-03-01T10:26:50;94438.47;;;6.88;nan
9277;BME280;4676;42.678;23.244;2023-03-01T10:29:23;94435.72;;;6.98;nan
9277;BME280;4676;42.678;23.244;2023-03-01T10:31:52;94435.56;;;7.06;nan
9277;BME280;4676;42.678;23.244;2023-03-01T10:34:22;94436.19;;;7.17;nan
9277;BME280;4676;42.678;23.244;2023-03-01T10:36:52;94426.56;;;7.33;nan
9277;BME280;4676;42.678;23.244;2023-03-01T10:39:23;94425.06;;;7.63;nan
9277;BME280;4676;42.678;23.244;2023-03-01T10:41:58;94420.63;;;7.71;nan
9277;BME280;4676;42.678;23.244;2023-03-01T10:44:37;94430.47;;;7.81;nan
9277;BME280;4676;42.678;23.244;2023-03-01T10:47:04;94433.72;;;7.51;nan
9277;BME280;4676;42.678;23.244;2023-03-01T10:49:31;94408.91;;;7.33;nan
9277;BME280;4676;42.678;23.244;2023-03-01T10:52:15;94430.53;;;7.06;nan
9277;BME280;4676;42.678;23.244;2023-03-01T10:54:52;94429.03;;;6.97;nan
9277;BME280;4676;42.678;23.244;2023-03-01T10:57:31;94430.81;;;6.92;nan
9277;BME280;4676;42.678;23.244;2023-03-01T11:00:21;94428.94;;;7.02;nan
9277;BME280;4676;42.678;23.244;2023-03-01T11:02:50;94428.03;;;7.04;nan
9277;BME280;4676;42.678;23.244;2023-03-01T11:05:21;94430.56;;;7.04;nan
9277;BME280;4676;42.678;23.244;2023-03-01T11:07:52;94430.66;;;7.00;nan
9277;BME280;4676;42.678;23.244;2023-03-01T11:10:22;94432.91;;;7.12;nan
9277;BME280;4676;42.678;23.244;2023-03-01T11:12:50;94432.47;;;7.32;nan
9277;BME280;4676;42.678;23.244;2023-03-01T11:15:24;94423.22;;;7.32;nan
9277;BME280;4676;42.678;23.244;2023-03-01T11:17:51;94421.09;;;7.52;nan
9277;BME280;4676;42.678;23.244;2023-03-01T11:20:25;94422.28;;;7.73;nan
9277;BME280;4676;42.678;23.244;2023-03-01T11:22:55;94395.97;;;7.82;nan
9277;BME280;4676;42.678;23.244;2023-03-01T11:25:25;94417.81;;;7.84;nan
9277;BME280;4676;42.678;23.244;2023-03-01T11:27:54;94410.25;;;7.84;nan
9277;BME280;4676;42.678;23.244;2023-03-01T11:30:25;94422.63;;;7.93;nan
9277;BME280;4676;42.678;23.244;2023-03-01T11:33:03;94410.78;;;7.95;nan
9277;BME280;4676;42.678;23.244;2023-03-01T11:35:32;94413.03;;;8.06;nan
9277;BME280;4676;42.678;23.244;2023-03-01T11:38:14;94401.50;;;7.97;nan
9277;BME280;4676;42.678;23.244;2023-03-01T11:40:45;94396.16;;;8.08;nan
9277;BME280;4676;42.678;23.244;2023-03-01T11:43:20;94407.50;;;8.24;nan
9277;BME280;4676;42.678;23.244;2023-03-01T11:46:21;94399.19;;;8.21;nan
9277;BME280;4676;42.678;23.244;2023-03-01T11:49:07;94394.44;;;8.10;nan
9277;BME280;4676;42.678;23.244;2023-03-01T11:51:44;94385.28;;;8.06;nan
9277;BME280;4676;42.678;23.244;2023-03-01T11:54:21;94380.00;;;8.15;nan
9277;BME280;4676;42.678;23.244;2023-03-01T11:56:55;94378.88;;;8.25;nan
9277;BME280;4676;42.678;23.244;2023-03-01T11:59:51;94381.03;;;8.08;nan
9277;BME280;4676;42.678;23.244;2023-03-01T12:02:45;94377.56;;;7.78;nan
9277;BME280;4676;42.678;23.244;2023-03-01T12:05:25;94376.38;;;7.59;nan
9277;BME280;4676;42.678;23.244;2023-03-01T12:08:00;94373.34;;;7.45;nan
9277;BME280;4676;42.678;23.244;2023-03-01T12:10:38;94363.97;;;7.50;nan
9277;BME280;4676;42.678;23.244;2023-03-01T12:14:03;94372.84;;;7.66;nan
9277;BME280;4676;42.678;23.244;2023-03-01T12:16:59;94373.44;;;7.76;nan
9277;BME280;4676;42.678;23.244;2023-03-01T12:19:41;94369.03;;;7.84;nan
9277;BME280;4676;42.678;23.244;2023-03-01T12:22:20;94348.47;;;7.65;nan
9277;BME280;4676;42.678;23.244;2023-03-01T12:28:07;94364.56;;;7.93;nan
9277;BME280;4676;42.678;23.244;2023-03-01T12:31:00;94362.09;;;7.92;nan
9277;BME280;4676;42.678;23.244;2023-03-01T12:33:38;94361.59;;;8.12;nan
9277;BME280;4676;42.678;23.244;2023-03-01T12:39:15;94359.84;;;8.14;nan
9277;BME280;4676;42.678;23.244;2023-03-01T12:41:48;94347.63;;;8.31;nan
9277;BME280;4676;42.678;23.244;2023-03-01T12:44:32;94354.22;;;8.02;nan
9277;BME280;4676;42.678;23.244;2023-03-01T12:47:11;94353.09;;;8.14;nan
9277;BME280;4676;42.678;23.244;2023-03-01T12:49:42;94354.31;;;8.33;nan
9277;BME280;4676;42.678;23.244;2023-03-01T12:52:14;94354.81;;;8.44;nan
9277;BME280;4676;42.678;23.244;2023-03-01T12:54:44;94352.13;;;8.80;nan
9277;BME280;4676;42.678;23.244;2023-03-01T12:57:15;94353.59;;;8.87;nan
9277;BME280;4676;42.678;23.244;2023-03-01T12:59:56;94348.50;;;8.59;nan
9277;BME280;4676;42.678;23.244;2023-03-01T13:02:33;94355.88;;;8.67;nan
9277;BME280;4676;42.678;23.244;2023-03-01T13:05:17;94357.09;;;8.53;nan
9277;BME280;4676;42.678;23.244;2023-03-01T13:07:52;94359.59;;;8.23;nan
9277;BME280;4676;42.678;23.244;2023-03-01T13:10:26;94346.91;;;8.26;nan
9277;BME280;4676;42.678;23.244;2023-03-01T13:13:12;94329.94;;;8.31;nan
9277;BME280;4676;42.678;23.244;2023-03-01T13:15:41;94353.41;;;8.65;nan
9277;BME280;4676;42.678;23.244;2023-03-01T13:18:27;94355.75;;;8.71;nan
9277;BME280;4676;42.678;23.244;2023-03-01T13:20:56;94325.41;;;8.42;nan
9277;BME280;4676;42.678;23.244;2023-03-01T13:23:27;94343.53;;;8.56;nan
9277;BME280;4676;42.678;23.244;2023-03-01T13:26:03;94351.88;;;8.89;nan
9277;BME280;4676;42.678;23.244;2023-03-01T13:28:48;94355.56;;;9.05;nan
9277;BME280;4676;42.678;23.244;2023-03-01T13:32:01;94351.66;;;8.67;nan
9277;BME280;4676;42.678;23.244;2023-03-01T13:34:56;94362.09;;;8.84;nan
9277;BME280;4676;42.678;23.244;2023-03-01T13:37:34;94364.06;;;8.75;nan
9277;BME280;4676;42.678;23.244;2023-03-01T13:42:50;94357.34;;;9.03;nan
9277;BME280;4676;42.678;23.244;2023-03-01T13:48:10;94343.56;;;8.84;nan
9277;BME280;4676;42.678;23.244;2023-03-01T13:50:45;94338.94;;;8.98;nan
9277;BME280;4676;42.678;23.244;2023-03-01T13:53:17;94348.94;;;9.01;nan
9277;BME280;4676;42.678;23.244;2023-03-01T13:55:45;94351.31;;;8.79;nan
9277;BME280;4676;42.678;23.244;2023-03-01T13:58:22;94342.31;;;8.69;nan
9277;BME280;4676;42.678;23.244;2023-03-01T14:00:55;94349.88;;;8.71;nan
9277;BME280;4676;42.678;23.244;2023-03-01T14:03:24;94350.91;;;8.64;nan
9277;BME280;4676;42.678;23.244;2023-03-01T14:06:00;94331.72;;;8.58;nan
9277;BME280;4676;42.678;23.244;2023-03-01T14:08:29;94335.75;;;8.64;nan
9277;BME280;4676;42.678;23.244;2023-03-01T14:14:18;94324.59;;;8.71;nan
9277;BME280;4676;42.678;23.244;2023-03-01T14:17:02;94329.63;;;8.72;nan
9277;BME280;4676;42.678;23.244;2023-03-01T14:19:34;94339.22;;;8.30;nan